| time (UTC) | temp F | wind direction | speed MPH | gust MPH | rain 1hr in | rain 24hr in | rain mn in | humidity % | barometer mb |
| 20260831025007 | 66 | 278 | 2.0 | 4.0 | 0.00 | 0.00 | 0.00 | 20 | 992.4 |
| 20260831021009 | 67 | 10 | 2.0 | 3.0 | 0.00 | 0.00 | 0.00 | 19 | 991.5 |
| 20260831015006 | 67 | 110 | 1.0 | 2.0 | 0.00 | 0.00 | 0.00 | 20 | 991.2 |
| 20260831014005 | 67 | 21 | 1.0 | 2.0 | 0.00 | 0.00 | 0.00 | 20 | 990.3 |
| 20260831012509 | 68 | 89 | 1.0 | 2.0 | 0.00 | 0.00 | 0.00 | 16 | 991.3 |
| 20260831012039 | 68 | 89 | 2.0 | 3.0 | 0.00 | 0.00 | 0.00 | 16 | 990.9 |
| 20260831005506 | 70 | 36 | 2.0 | 2.0 | 0.00 | 0.00 | 0.00 | 16 | 992.0 |
| 20260831005005 | 69 | 20 | 2.0 | 2.0 | 0.00 | 0.00 | 0.00 | 19 | 992.5 |
| 20260831001506 | 74 | 9 | 3.0 | 3.0 | 0.00 | 0.00 | 0.00 | 14 | 991.9 |
| 20260831000504 | 76 | 83 | 2.0 | 2.0 | 0.00 | 0.00 | 0.00 | 15 | 992.4 |
| 20260830235009 | 76 | 75 | 2.0 | 3.0 | 0.00 | 0.00 | 0.00 | 15 | 992.0 |
| 20260830230504 | 76 | 41 | 3.0 | 4.0 | 0.00 | 0.00 | 0.00 | 10 | 991.4 |
| 20260830225008 | 74 | 52 | 3.0 | 6.0 | 0.00 | 0.00 | 0.00 | 17 | 993.0 |
| 20260830224008 | 74 | 65 | 2.0 | 4.0 | 0.00 | 0.00 | 0.00 | 15 | 992.9 |
| 20260830223507 | 75 | 68 | 2.0 | 3.0 | 0.00 | 0.00 | 0.00 | 13 | 992.0 |
| 20260830222005 | 73 | 5 | 2.0 | 3.0 | 0.00 | 0.00 | 0.00 | 18 | 991.5 |
| 20260830220504 | 70 | 34 | 4.0 | 6.0 | 0.00 | 0.00 | 0.00 | 20 | 992.9 |
| 20260830215008 | 73 | 27 | 3.0 | 3.0 | 0.00 | 0.00 | 0.00 | 17 | 992.1 |
| 20260830213006 | 71 | 14 | 3.0 | 3.0 | 0.00 | 0.00 | 0.00 | 21 | 993.0 |
| 20260830212005 | 72 | 30 | 3.0 | 4.0 | 0.00 | 0.00 | 0.00 | 19 | 993.4 |
| 20260830211504 | 73 | 5 | 3.0 | 5.0 | 0.00 | 0.00 | 0.00 | 16 | 992.9 |
| 20260830210009 | 76 | 60 | 2.0 | 3.0 | 0.00 | 0.00 | 0.00 | 16 | 994.0 |
| 20260830204507 | 78 | 43 | 2.0 | 3.0 | 0.00 | 0.00 | 0.00 | 9 | 994.3 |
| 20260830203006 | 81 | 52 | 3.0 | 3.0 | 0.00 | 0.00 | 0.00 | 7 | 993.8 |
| 20260830202505 | 81 | 56 | 2.0 | 3.0 | 0.00 | 0.00 | 0.00 | 6 | 994.4 |
| 20260830200503 | 83 | 67 | 3.0 | 4.0 | 0.00 | 0.00 | 0.00 | 9 | 993.3 |
| 20260830200009 | 80 | 94 | 2.0 | 3.0 | 0.00 | 0.00 | 0.00 | 10 | 993.6 |
| 20260830195008 | 79 | 104 | 3.0 | 3.0 | 0.00 | 0.00 | 0.00 | 12 | 993.4 |
| 20260830193506 | 79 | 108 | 3.0 | 5.0 | 0.00 | 0.00 | 0.00 | 10 | 995.3 |
| 20260830192005 | 78 | 64 | 3.0 | 4.0 | 0.00 | 0.00 | 0.00 | 10 | 995.2 |
| 20260830191004 | 79 | 99 | 3.0 | 4.0 | 0.00 | 0.00 | 0.00 | 9 | 995.3 |
| 20260830183006 | 83 | 85 | 2.0 | 3.0 | 0.00 | 0.00 | 0.00 | 8 | 995.1 |
| 20260830181504 | 81 | 161 | 2.0 | 4.0 | 0.00 | 0.00 | 0.00 | 8 | 994.8 |
| 20260830181003 | 83 | 75 | 2.0 | 3.0 | 0.00 | 0.00 | 0.00 | 8 | 994.8 |
| 20260830174507 | 82 | 75 | 3.0 | 3.0 | 0.00 | 0.00 | 0.00 | 8 | 995.7 |
| 20260830172505 | 79 | 110 | 4.0 | 4.0 | 0.00 | 0.00 | 0.00 | 7 | 995.2 |
| 20260830170502 | 74 | 159 | 5.0 | 5.0 | 0.00 | 0.00 | 0.00 | 12 | 994.4 |
| 20260830164506 | 74 | 94 | 3.0 | 4.0 | 0.00 | 0.00 | 0.00 | 14 | 995.2 |
| 20260830163005 | 70 | 134 | 2.0 | 4.0 | 0.00 | 0.00 | 0.00 | 16 | 994.4 |
| 20260830161009 | 68 | 171 | 9.0 | 9.0 | 0.00 | 0.00 | 0.00 | 18 | 994.6 |
| 20260830155507 | 65 | 167 | 6.0 | 6.0 | 0.00 | 0.00 | 0.00 | 23 | 994.6 |
| 20260830154506 | 65 | 153 | 7.0 | 11.0 | 0.00 | 0.00 | 0.00 | 24 | 993.8 |
| 20260830154006 | 65 | 131 | 7.0 | 10.0 | 0.00 | 0.00 | 0.00 | 23 | 992.8 |
| 20260830152504 | 64 | 148 | 5.0 | 7.0 | 0.00 | 0.00 | 0.00 | 22 | 994.2 |
| 20260830151504 | 64 | 139 | 5.0 | 6.0 | 0.00 | 0.00 | 0.00 | 23 | 993.0 |
| 20260830151009 | 64 | 111 | 5.0 | 8.0 | 0.00 | 0.00 | 0.00 | 23 | 993.9 |
| 20260830145507 | 63 | 151 | 7.0 | 8.0 | 0.00 | 0.00 | 0.00 | 22 | 993.9 |
| 20260830142504 | 61 | 148 | 7.0 | 9.0 | 0.00 | 0.00 | 0.00 | 25 | 992.8 |
| 20260830141503 | 61 | 94 | 6.0 | 7.0 | 0.00 | 0.00 | 0.00 | 29 | 993.7 |
| 20260830141007 | 60 | 137 | 7.0 | 8.0 | 0.00 | 0.00 | 0.00 | 27 | 993.3 |
| 20260830140506 | 60 | 122 | 6.0 | 7.0 | 0.00 | 0.00 | 0.00 | 29 | 993.9 |
| 20260830140006 | 60 | 134 | 7.0 | 8.0 | 0.00 | 0.00 | 0.00 | 28 | 993.4 |
| 20260830135005 | 60 | 110 | 6.0 | 7.0 | 0.00 | 0.00 | 0.00 | 29 | 994.1 |
| 20260830132008 | 56 | 142 | 8.0 | 9.0 | 0.00 | 0.00 | 0.00 | 35 | 993.8 |
| 20260830130005 | 55 | 120 | 7.0 | 11.0 | 0.00 | 0.00 | 0.00 | 31 | 993.5 |
| 20260830125505 | 56 | 144 | 10.0 | 11.0 | 0.00 | 0.00 | 0.00 | 28 | 993.0 |
| 20260830124504 | 58 | 96 | 6.0 | 8.0 | 0.00 | 0.00 | 0.00 | 32 | 992.8 |
| 20260830122508 | 55 | 109 | 6.0 | 7.0 | 0.00 | 0.00 | 0.00 | 31 | 992.4 |
| 20260830121006 | 56 | 175 | 11.0 | 17.0 | 0.00 | 0.00 | 0.00 | 37 | 991.8 |
| 20260830115003 | 59 | 165 | 4.0 | 8.0 | 0.00 | 0.00 | 0.00 | 32 | 992.0 |
| 20260830114509 | 60 | 154 | 4.0 | 7.0 | 0.00 | 0.00 | 0.00 | 36 | 992.7 |
| 20260830113007 | 62 | 175 | 9.0 | 15.0 | 0.00 | 0.00 | 0.00 | 21 | 992.0 |
| 20260830110504 | 63 | 179 | 9.0 | 11.0 | 0.00 | 0.00 | 0.00 | 17 | 992.6 |
| 20260830104508 | 66 | 184 | 8.0 | 12.0 | 0.00 | 0.00 | 0.00 | 10 | 993.3 |
| 20260830103006 | 66 | 188 | 9.0 | 11.0 | 0.00 | 0.00 | 0.00 | 9 | 993.9 |
| 20260830093506 | 67 | 169 | 8.0 | 11.0 | 0.00 | 0.00 | 0.00 | 8 | 992.5 |
| 20260830092505 | 67 | 169 | 7.0 | 12.0 | 0.00 | 0.00 | 0.00 | 8 | 993.2 |
| 20260830090503 | 67 | 175 | 3.0 | 4.0 | 0.00 | 0.00 | 0.00 | 7 | 992.7 |
| 20260830090003 | 67 | 180 | 8.0 | 8.0 | 0.00 | 0.00 | 0.00 | 6 | 993.0 |
| 20260830085508 | 67 | 180 | 8.0 | 8.0 | 0.00 | 0.00 | 0.00 | 6 | 993.0 |
| 20260830083506 | 69 | 174 | 5.0 | 7.0 | 0.00 | 0.00 | 0.00 | 3 | 992.8 |
| 20260830080503 | 70 | 131 | 1.0 | 2.0 | 0.00 | 0.00 | 0.00 | 2 | 992.1 |
| 20260830075007 | 69 | 154 | 3.0 | 4.0 | 0.00 | 0.00 | 0.00 | 3 | 992.2 |
| 20260830073505 | 68 | 189 | 5.0 | 13.0 | 0.00 | 0.00 | 0.00 | 5 | 992.7 |
| 20260830072504 | 68 | 175 | 7.0 | 13.0 | 0.00 | 0.00 | 0.00 | 6 | 992.1 |
| 20260830070508 | 67 | 214 | 10.0 | 15.0 | 0.00 | 0.00 | 0.00 | 7 | 993.4 |
| 20260830063004 | 67 | 210 | 12.0 | 17.0 | 0.00 | 0.00 | 0.00 | 8 | 992.2 |
| 20260830060508 | 66 | 202 | 16.0 | 20.0 | 0.00 | 0.00 | 0.00 | 10 | 993.2 |
| 20260830055006 | 65 | 206 | 14.0 | 21.0 | 0.00 | 0.00 | 0.00 | 17 | 993.0 |
| 20260830052503 | 64 | 214 | 6.0 | 10.0 | 0.00 | 0.00 | 0.00 | 14 | 992.2 |
| 20260830044005 | 63 | 188 | 19.0 | 22.0 | 0.00 | 0.00 | 0.00 | 25 | 993.9 |
| 20260830043002 | 62 | 187 | 16.0 | 19.0 | 0.00 | 0.00 | 0.00 | 28 | 993.0 |
| 20260830042508 | 62 | 190 | 18.0 | 22.0 | 0.00 | 0.00 | 0.00 | 27 | 992.5 |
| 20260830040506 | 62 | 203 | 13.0 | 19.0 | 0.00 | 0.00 | 0.00 | 27 | 992.6 |
| 20260830035004 | 62 | 206 | 13.0 | 17.0 | 0.00 | 0.00 | 0.00 | 28 | 993.9 |
| 20260830031506 | 64 | 236 | 9.0 | 13.0 | 0.00 | 0.00 | 0.00 | 17 | 992.4 |
| 20260830031006 | 64 | 207 | 10.0 | 13.0 | 0.00 | 0.00 | 0.00 | 18 | 992.8 |
| 20260830030004 | 64 | 226 | 9.0 | 12.0 | 0.00 | 0.00 | 0.00 | 18 | 992.6 |